Time;durP1;ratioP1;P1;durP2;ratioP2;P2;SDS_P1;SDS_P2;PMS_P1;PMS_P2;Temp;Humidity;BMP_temperature;BMP_pressure;BME280_temperature;BME280_humidity;BME280_pressure;Samples;Min_cycle;Max_cycle;Signal;HPM_P1;HPM_P2
2022/01/16 00:00:57;;;;;;;1890.00;497.13;;;4.60;99.90;;;;;;6224773;23;21005;-79
2022/01/16 00:06:17;;;;;;;1999.90;726.43;;;4.60;99.90;;;;;;6227807;23;20913;-79
2022/01/16 00:08:45;;;;;;;1912.67;528.03;;;4.60;99.90;;;;;;6225756;23;20438;-79
2022/01/16 00:11:13;;;;;;;1999.90;634.07;;;4.60;99.90;;;;;;6224540;23;20482;-79
2022/01/16 00:13:42;;;;;;;1876.57;491.67;;;4.50;99.90;;;;;;6251676;23;20404;-79
2022/01/16 00:16:16;;;;;;;1953.47;590.80;;;4.50;99.90;;;;;;6225006;23;20437;-79
2022/01/16 00:18:53;;;;;;;1999.90;614.43;;;4.50;99.90;;;;;;6224469;23;20420;-79
2022/01/16 00:21:22;;;;;;;1360.93;366.43;;;4.40;99.90;;;;;;6249008;23;20543;-79
2022/01/16 00:23:52;;;;;;;1999.90;713.20;;;4.40;99.90;;;;;;6250199;22;20448;-79
2022/01/16 00:26:21;;;;;;;1971.67;551.60;;;4.40;99.90;;;;;;6223828;23;20540;-79
2022/01/16 00:28:50;;;;;;;1397.57;348.83;;;4.40;99.90;;;;;;6249338;23;20501;-79
2022/01/16 00:31:19;;;;;;;1830.33;454.17;;;4.40;99.90;;;;;;6249898;22;20423;-79
2022/01/16 00:33:50;;;;;;;1999.90;562.77;;;4.40;99.90;;;;;;6251605;22;20469;-79
2022/01/16 00:36:19;;;;;;;1285.13;327.70;;;4.40;99.90;;;;;;6251830;22;20757;-79
2022/01/16 00:38:48;;;;;;;1912.63;543.77;;;4.40;99.90;;;;;;6252046;23;20488;-79
2022/01/16 00:41:18;;;;;;;1917.00;520.17;;;4.40;99.90;;;;;;6224769;23;20437;-78
2022/01/16 00:43:47;;;;;;;1820.20;453.10;;;4.40;99.90;;;;;;6261746;23;20489;-79
2022/01/16 00:46:15;;;;;;;1773.37;461.13;;;4.40;99.90;;;;;;6224113;23;20452;-79
2022/01/16 00:48:44;;;;;;;1956.50;524.93;;;4.40;99.90;;;;;;6249829;23;20413;-79
2022/01/16 00:51:14;;;;;;;1919.90;509.03;;;4.40;99.90;;;;;;6250456;23;20529;-78
2022/01/16 00:53:43;;;;;;;1309.97;324.13;;;4.40;99.90;;;;;;6251154;23;20448;-79
2022/01/16 00:56:12;;;;;;;1955.27;508.80;;;4.40;99.90;;;;;;6224514;23;20535;-79
2022/01/16 00:58:40;;;;;;;1360.03;341.13;;;4.40;99.90;;;;;;6261664;23;20419;-79
2022/01/16 01:01:10;;;;;;;1150.87;323.40;;;4.40;99.90;;;;;;6223691;23;20481;-79
2022/01/16 01:03:39;;;;;;;1983.67;564.60;;;4.30;99.90;;;;;;6251985;23;20397;-79
2022/01/16 01:06:08;;;;;;;1521.83;388.73;;;4.30;99.90;;;;;;6262086;22;20931;-79
2022/01/16 01:08:37;;;;;;;1317.33;321.20;;;4.40;99.90;;;;;;6262030;23;20477;-79
2022/01/16 01:11:10;;;;;;;1783.83;466.27;;;4.30;99.90;;;;;;6249994;23;20483;-80
2022/01/16 01:13:56;;;;;;;1206.57;330.13;;;4.30;99.90;;;;;;6224823;23;20465;-79
2022/01/16 01:16:25;;;;;;;1865.83;555.80;;;4.30;99.90;;;;;;6263368;22;20423;-79
2022/01/16 01:18:53;;;;;;;1785.67;437.50;;;4.30;99.90;;;;;;6226145;23;20406;-79
2022/01/16 01:21:28;;;;;;;901.90;266.83;;;4.30;99.90;;;;;;6226094;23;20421;-79
2022/01/16 01:24:01;;;;;;;1226.77;319.63;;;4.30;99.90;;;;;;6253646;23;20729;-79
2022/01/16 01:26:35;;;;;;;1635.53;398.00;;;4.30;99.90;;;;;;6253939;22;20496;-79
2022/01/16 01:29:03;;;;;;;1902.57;465.30;;;4.30;99.90;;;;;;6226098;23;20462;-79
2022/01/16 01:31:31;;;;;;;1875.20;491.53;;;4.30;99.90;;;;;;6226456;23;20409;-79
2022/01/16 01:34:00;;;;;;;1664.93;431.13;;;4.30;99.90;;;;;;6225918;23;20405;-79
2022/01/16 01:36:28;;;;;;;1918.30;544.40;;;4.30;99.90;;;;;;6226604;23;21030;-79
2022/01/16 01:38:58;;;;;;;1512.10;380.97;;;4.30;99.90;;;;;;6226302;23;20460;-79
2022/01/16 01:41:28;;;;;;;733.93;257.17;;;4.30;99.90;;;;;;6225568;23;20876;-79
2022/01/16 01:52:13;;;;;;;1614.47;403.10;;;4.30;99.90;;;;;;6226287;23;20480;-79
2022/01/16 01:54:43;;;;;;;1016.53;284.80;;;4.30;99.90;;;;;;6226097;23;20432;-79
2022/01/16 01:57:12;;;;;;;1044.73;249.93;;;4.30;99.90;;;;;;6253730;23;20440;-79
2022/01/16 01:59:40;;;;;;;1028.97;256.03;;;4.30;99.90;;;;;;6263828;23;20418;-79
2022/01/16 02:02:08;;;;;;;833.50;238.33;;;4.40;99.90;;;;;;6226160;23;21003;-79
2022/01/16 02:04:37;;;;;;;1602.03;396.93;;;4.30;99.90;;;;;;6226441;23;20506;-79
2022/01/16 02:07:06;;;;;;;959.27;263.97;;;4.30;99.90;;;;;;6253328;23;20444;-79
2022/01/16 02:09:34;;;;;;;1016.10;271.63;;;4.30;99.90;;;;;;6253169;23;20415;-79
2022/01/16 02:12:04;;;;;;;1105.77;282.97;;;4.30;99.90;;;;;;6271916;22;20412;-79
2022/01/16 02:14:46;;;;;;;1812.17;479.07;;;4.30;99.90;;;;;;6248952;22;20440;-79
2022/01/16 02:28:22;;;;;;;1999.90;659.60;;;4.30;99.90;;;;;;6226499;23;20468;-79
2022/01/16 02:31:15;;;;;;;1999.90;565.33;;;4.30;99.90;;;;;;6251371;23;20821;-80
2022/01/16 02:36:34;;;;;;;1999.90;644.03;;;4.20;99.90;;;;;;6226612;23;20933;-79
2022/01/16 02:39:10;;;;;;;1999.90;683.43;;;4.30;99.90;;;;;;6227283;23;20406;-79
2022/01/16 02:41:38;;;;;;;1999.90;584.20;;;4.30;99.90;;;;;;6263796;23;20845;-79
2022/01/16 02:44:17;;;;;;;1773.67;505.30;;;4.20;99.90;;;;;;6226386;23;20461;-79
2022/01/16 02:46:46;;;;;;;1999.90;661.23;;;4.30;99.90;;;;;;6227071;23;20412;-79
2022/01/16 02:49:19;;;;;;;1945.67;550.17;;;4.30;99.90;;;;;;6227752;23;20420;-79
2022/01/16 02:51:48;;;;;;;1999.90;647.87;;;4.30;99.90;;;;;;6227528;23;20401;-79
2022/01/16 02:54:17;;;;;;;1999.90;682.63;;;4.30;99.90;;;;;;6226257;22;20444;-80
2022/01/16 02:56:48;;;;;;;1999.90;613.17;;;4.30;99.90;;;;;;6264577;23;20405;-79
2022/01/16 02:59:18;;;;;;;1999.77;599.70;;;4.30;99.90;;;;;;6254645;23;20398;-80
2022/01/16 03:01:47;;;;;;;1941.43;552.73;;;4.30;99.90;;;;;;6253746;23;20426;-79
2022/01/16 03:04:16;;;;;;;1999.90;677.07;;;4.30;99.90;;;;;;6223895;22;20440;-79
2022/01/16 03:06:44;;;;;;;1999.90;615.80;;;4.30;99.90;;;;;;6224795;23;20437;-79
2022/01/16 03:09:13;;;;;;;1857.87;471.93;;;4.30;99.90;;;;;;6225842;23;20426;-79
2022/01/16 03:11:46;;;;;;;1999.90;747.87;;;4.30;99.90;;;;;;6225494;23;20988;-79
2022/01/16 03:14:16;;;;;;;1999.90;712.33;;;4.30;99.90;;;;;;6263346;22;20382;-79
2022/01/16 03:16:48;;;;;;;1997.43;595.03;;;4.40;99.90;;;;;;6225943;23;20413;-79
2022/01/16 03:22:04;;;;;;;1999.90;598.33;;;4.30;99.90;;;;;;6225413;23;20421;-79
2022/01/16 03:24:36;;;;;;;1999.90;756.00;;;4.30;99.90;;;;;;6224849;22;21869;-79
2022/01/16 03:27:08;;;;;;;1999.90;715.40;;;4.30;99.90;;;;;;6226643;23;20414;-79
2022/01/16 03:29:37;;;;;;;1999.90;634.50;;;4.20;99.90;;;;;;6251760;23;20409;-79
2022/01/16 03:32:08;;;;;;;1999.90;682.00;;;4.20;99.90;;;;;;6250800;22;20857;-79
2022/01/16 03:34:36;;;;;;;1999.90;559.07;;;4.20;99.90;;;;;;6225233;22;20429;-79
2022/01/16 03:37:05;;;;;;;1999.90;657.33;;;4.20;99.90;;;;;;6226124;23;20485;-79
2022/01/16 03:39:34;;;;;;;1999.90;677.13;;;4.20;99.90;;;;;;6227560;23;20457;-79
2022/01/16 03:42:02;;;;;;;1999.90;647.67;;;4.20;99.90;;;;;;6226731;23;20994;-79
2022/01/16 03:44:31;;;;;;;1999.90;654.77;;;4.20;99.90;;;;;;6252205;22;20520;-79
2022/01/16 03:47:00;;;;;;;1999.90;664.07;;;4.10;99.90;;;;;;6225656;23;20451;-79
2022/01/16 03:49:30;;;;;;;1999.90;623.87;;;4.10;99.90;;;;;;6250695;23;20418;-80
2022/01/16 03:52:00;;;;;;;1999.90;652.07;;;4.10;99.90;;;;;;6224896;23;20402;-79
2022/01/16 03:54:30;;;;;;;1999.90;679.37;;;4.10;99.90;;;;;;6251453;22;20509;-79
2022/01/16 03:57:00;;;;;;;1999.90;561.37;;;4.10;99.90;;;;;;6225515;23;20475;-79
2022/01/16 03:59:29;;;;;;;1999.90;704.30;;;4.10;99.90;;;;;;6225256;23;20725;-80
2022/01/16 04:01:58;;;;;;;1999.90;717.33;;;4.00;99.90;;;;;;6225552;23;20401;-80
2022/01/16 04:04:26;;;;;;;1999.90;756.30;;;4.00;99.90;;;;;;6264339;22;20428;-79
2022/01/16 04:06:55;;;;;;;1999.90;999.90;;;4.00;99.90;;;;;;6263822;23;20397;-79
2022/01/16 04:09:23;;;;;;;1999.90;495.20;;;4.10;99.90;;;;;;6224753;23;20413;-79
2022/01/16 04:11:54;;;;;;;1999.90;617.23;;;4.00;99.90;;;;;;6225124;23;20420;-79
2022/01/16 04:15:31;;;;;;;1999.90;837.17;;;4.00;99.90;;;;;;6262420;22;20422;-79
2022/01/16 04:17:15;;;;;;;1999.90;999.90;;;4.00;99.90;;;;;;6225118;23;20444;-79
2022/01/16 04:19:44;;;;;;;1999.90;401.70;;;3.90;99.90;;;;;;6250817;23;20457;-79
2022/01/16 04:22:16;;;;;;;1999.90;644.50;;;3.90;99.90;;;;;;6225696;23;20508;-79
2022/01/16 04:24:44;;;;;;;1999.90;696.43;;;3.90;99.90;;;;;;6225386;23;20441;-79
2022/01/16 04:27:14;;;;;;;1999.90;792.57;;;3.80;99.90;;;;;;6224893;23;20420;-79
2022/01/16 04:29:43;;;;;;;1999.90;638.30;;;3.90;99.90;;;;;;6224447;23;20441;-79
2022/01/16 04:32:16;;;;;;;1999.90;999.90;;;3.80;99.90;;;;;;6224942;23;20456;-79
2022/01/16 04:34:44;;;;;;;1999.90;486.97;;;3.80;99.90;;;;;;6262312;22;20804;-80
2022/01/16 04:37:12;;;;;;;1999.90;999.90;;;3.80;99.90;;;;;;6224832;23;20471;-79
2022/01/16 04:39:48;;;;;;;1999.90;519.70;;;3.80;99.90;;;;;;6251137;22;20744;-79
2022/01/16 04:45:02;;;;;;;1999.90;999.90;;;3.70;99.90;;;;;;6225124;23;20566;-79
2022/01/16 04:47:32;;;;;;;1999.90;594.33;;;3.70;99.90;;;;;;6251715;23;20483;-79
2022/01/16 04:50:00;;;;;;;1999.90;609.93;;;3.70;99.90;;;;;;6226504;23;20447;-79
2022/01/16 04:52:28;;;;;;;1999.90;806.67;;;3.70;99.90;;;;;;6227059;23;20410;-79
2022/01/16 04:54:56;;;;;;;1999.90;999.90;;;3.70;99.90;;;;;;6264497;22;20452;-79
2022/01/16 04:57:24;;;;;;;1999.90;395.90;;;3.70;99.90;;;;;;6227018;23;20445;-79
2022/01/16 04:59:52;;;;;;;1999.90;585.53;;;3.70;99.90;;;;;;6253617;23;20411;-79
2022/01/16 05:02:21;;;;;;;1999.90;999.90;;;3.60;99.90;;;;;;6263238;23;20790;-79
2022/01/16 05:04:50;;;;;;;1999.90;665.77;;;3.60;99.90;;;;;;6226737;23;20451;-79
2022/01/16 05:07:19;;;;;;;1999.90;777.47;;;3.60;99.90;;;;;;6253608;23;20410;-79
2022/01/16 05:09:47;;;;;;;1999.90;756.30;;;3.60;99.90;;;;;;6251304;23;20447;-79
2022/01/16 05:12:25;;;;;;;1999.90;999.90;;;3.60;99.90;;;;;;6226692;23;20413;-81
2022/01/16 05:17:38;;;;;;;1999.90;999.90;;;3.50;99.90;;;;;;6226022;23;20496;-79
2022/01/16 05:20:09;;;;;;;1999.90;999.90;;;3.50;99.90;;;;;;6226690;23;20432;-79
2022/01/16 05:22:38;;;;;;;1999.90;367.97;;;3.50;99.90;;;;;;6252479;23;20405;-79
2022/01/16 05:25:08;;;;;;;1999.90;827.50;;;3.50;99.90;;;;;;6226071;23;20452;-79
2022/01/16 05:27:36;;;;;;;1999.90;805.83;;;3.50;99.90;;;;;;6226125;23;20452;-79
2022/01/16 05:30:05;;;;;;;1999.90;581.20;;;3.40;99.90;;;;;;6226406;23;20787;-79
2022/01/16 05:32:34;;;;;;;1999.90;999.90;;;3.50;99.90;;;;;;6226708;23;20426;-79
2022/01/16 05:35:10;;;;;;;1999.90;568.07;;;3.50;99.90;;;;;;6226060;23;20518;-79
2022/01/16 05:37:38;;;;;;;1999.90;999.90;;;3.50;99.90;;;;;;6263613;23;20475;-79
2022/01/16 05:40:07;;;;;;;1999.90;999.90;;;3.50;99.90;;;;;;6226032;23;20452;-79
2022/01/16 05:42:35;;;;;;;1999.90;804.23;;;3.50;99.90;;;;;;6263874;23;20390;-79
2022/01/16 05:45:04;;;;;;;1999.90;407.90;;;3.50;99.90;;;;;;6225753;23;20972;-79
2022/01/16 05:47:32;;;;;;;1999.90;776.67;;;3.50;99.90;;;;;;6262947;23;20489;-79
2022/01/16 05:50:00;;;;;;;1999.90;999.90;;;3.50;99.90;;;;;;6262384;23;20425;-80
2022/01/16 05:52:45;;;;;;;1999.90;624.67;;;3.50;99.90;;;;;;6263180;23;20386;-79
2022/01/16 05:55:14;;;;;;;1999.90;641.47;;;3.50;99.90;;;;;;6225748;23;20952;-79
2022/01/16 05:57:43;;;;;;;1999.90;444.60;;;3.50;99.90;;;;;;6251459;23;20501;-79
2022/01/16 06:00:14;;;;;;;1999.90;614.67;;;3.50;99.90;;;;;;6226008;23;20498;-79
2022/01/16 06:02:42;;;;;;;1999.90;558.27;;;3.50;99.90;;;;;;6253013;23;20479;-79
2022/01/16 06:05:12;;;;;;;1999.90;879.00;;;3.50;99.90;;;;;;6226151;23;20956;-79
2022/01/16 06:07:40;;;;;;;1999.90;596.00;;;3.50;99.90;;;;;;6251236;22;20493;-80
2022/01/16 06:10:11;;;;;;;1999.90;724.67;;;3.50;99.90;;;;;;6226334;23;20486;-79
2022/01/16 06:12:39;;;;;;;1999.90;769.57;;;3.50;99.90;;;;;;6225967;23;20495;-79
2022/01/16 06:15:08;;;;;;;1999.90;619.57;;;3.50;99.90;;;;;;6263284;22;20752;-79
2022/01/16 06:17:36;;;;;;;1999.90;621.10;;;3.50;99.90;;;;;;6226759;23;20442;-79
2022/01/16 06:20:05;;;;;;;1999.90;626.87;;;3.50;99.90;;;;;;6262556;23;20503;-78
2022/01/16 06:22:33;;;;;;;1999.90;686.00;;;3.50;99.90;;;;;;6225320;23;20442;-78
2022/01/16 06:25:06;;;;;;;1999.90;999.90;;;3.50;99.90;;;;;;6250139;23;20453;-78
2022/01/16 06:27:36;;;;;;;1999.90;661.17;;;3.50;99.90;;;;;;6225091;23;20442;-78
2022/01/16 06:30:05;;;;;;;1999.90;690.80;;;3.50;99.90;;;;;;6225699;23;20415;-78
2022/01/16 06:32:33;;;;;;;1999.90;765.70;;;3.50;99.90;;;;;;6250346;23;20458;-78
2022/01/16 06:35:02;;;;;;;1999.90;879.97;;;3.50;99.90;;;;;;6252420;22;20430;-78
2022/01/16 06:37:30;;;;;;;1999.90;675.20;;;3.60;99.90;;;;;;6225244;23;20447;-78
2022/01/16 06:39:58;;;;;;;1999.90;748.57;;;3.50;99.90;;;;;;6252540;23;20472;-79
2022/01/16 06:42:26;;;;;;;1999.90;706.47;;;3.50;99.90;;;;;;6251038;23;20453;-79
2022/01/16 06:44:56;;;;;;;1999.90;799.53;;;3.50;99.90;;;;;;6225916;23;20517;-79
2022/01/16 06:47:24;;;;;;;1999.90;794.20;;;3.50;99.90;;;;;;6225641;23;20500;-78
2022/01/16 06:49:52;;;;;;;1999.90;813.07;;;3.50;99.90;;;;;;6225956;23;20418;-78
2022/01/16 06:52:20;;;;;;;1999.90;820.40;;;3.60;99.90;;;;;;6262834;23;20469;-78
2022/01/16 06:54:48;;;;;;;1999.90;790.53;;;3.50;99.90;;;;;;6252336;22;20432;-78
2022/01/16 06:57:17;;;;;;;1999.90;716.77;;;3.50;99.90;;;;;;6225096;23;20417;-78
2022/01/16 06:59:47;;;;;;;1999.90;715.60;;;3.60;99.90;;;;;;6225432;23;20745;-78
2022/01/16 07:02:17;;;;;;;1999.90;735.80;;;3.60;99.90;;;;;;6225403;23;20975;-78
2022/01/16 07:04:46;;;;;;;1999.90;809.20;;;3.60;99.90;;;;;;6261943;22;20434;-79
2022/01/16 07:07:15;;;;;;;1999.90;813.23;;;3.60;99.90;;;;;;6262579;23;20406;-78
2022/01/16 07:09:45;;;;;;;1999.90;793.43;;;3.60;99.90;;;;;;6252570;23;20447;-78
2022/01/16 07:12:14;;;;;;;1999.90;877.30;;;3.60;99.90;;;;;;6252685;22;20442;-78
2022/01/16 07:14:43;;;;;;;1999.90;823.63;;;3.60;99.90;;;;;;6226026;23;20461;-78
2022/01/16 07:17:11;;;;;;;1999.90;826.60;;;3.70;99.90;;;;;;6262756;23;20408;-78
2022/01/16 07:19:41;;;;;;;1999.90;818.80;;;3.60;99.90;;;;;;6250251;23;20453;-78
2022/01/16 07:22:09;;;;;;;1999.90;803.30;;;3.60;99.90;;;;;;6224124;23;20419;-78
2022/01/16 07:24:37;;;;;;;1999.90;832.67;;;3.60;99.90;;;;;;6225066;22;20455;-78
2022/01/16 07:27:06;;;;;;;1999.90;774.60;;;3.60;99.90;;;;;;6261917;23;20428;-79
2022/01/16 07:29:34;;;;;;;1999.90;773.90;;;3.60;99.90;;;;;;6225028;23;20453;-79
2022/01/16 07:32:04;;;;;;;1999.90;779.83;;;3.60;99.90;;;;;;6225406;23;20454;-78
2022/01/16 07:34:32;;;;;;;1999.90;802.93;;;3.60;99.90;;;;;;6225290;22;20445;-78
2022/01/16 07:37:01;;;;;;;1999.90;798.90;;;3.60;99.90;;;;;;6224812;23;20444;-78
2022/01/16 07:39:30;;;;;;;1999.90;837.53;;;3.70;99.90;;;;;;6224514;23;20420;-78
2022/01/16 07:41:58;;;;;;;1999.90;857.47;;;3.60;99.90;;;;;;6251513;23;20423;-79
2022/01/16 07:44:26;;;;;;;1999.90;748.40;;;3.60;99.90;;;;;;6250259;22;20508;-78
2022/01/16 07:46:54;;;;;;;1999.90;851.33;;;3.70;99.90;;;;;;6224155;23;20900;-78
2022/01/16 07:49:22;;;;;;;1999.90;773.30;;;3.70;99.90;;;;;;6224824;23;20977;-78
2022/01/16 07:51:51;;;;;;;1999.90;870.57;;;3.70;99.90;;;;;;6262109;23;20397;-79
2022/01/16 07:54:20;;;;;;;1999.90;772.90;;;3.70;99.90;;;;;;6224854;22;20481;-78
2022/01/16 07:56:49;;;;;;;1999.90;808.40;;;3.70;99.90;;;;;;6261258;23;20424;-78
2022/01/16 07:59:17;;;;;;;1999.90;775.17;;;3.70;99.90;;;;;;6251994;23;20444;-78
2022/01/16 08:01:45;;;;;;;1999.90;710.60;;;3.70;99.90;;;;;;6224781;23;20465;-78
2022/01/16 08:04:13;;;;;;;1999.90;773.30;;;3.70;99.90;;;;;;6225312;23;20408;-79
2022/01/16 08:06:41;;;;;;;1999.90;815.50;;;3.70;99.90;;;;;;6250659;23;20486;-78
2022/01/16 08:09:10;;;;;;;1999.90;784.77;;;3.80;99.90;;;;;;6223237;23;20500;-79
2022/01/16 08:11:39;;;;;;;1999.90;843.07;;;3.80;99.90;;;;;;6223291;23;20427;-78
2022/01/16 08:14:07;;;;;;;1999.90;695.73;;;3.80;99.90;;;;;;6260567;23;20393;-79
2022/01/16 08:16:35;;;;;;;1999.90;827.13;;;3.80;99.90;;;;;;6222879;23;20520;-78
2022/01/16 08:19:03;;;;;;;1999.90;682.93;;;3.80;99.90;;;;;;6223299;23;20449;-78
2022/01/16 08:21:32;;;;;;;1999.90;673.77;;;3.80;99.90;;;;;;6222993;23;20418;-78
2022/01/16 08:24:03;;;;;;;1999.90;698.57;;;3.80;99.90;;;;;;6250395;23;20401;-78
2022/01/16 08:26:32;;;;;;;1999.90;695.00;;;3.80;99.90;;;;;;6223070;23;20540;-78
2022/01/16 08:29:02;;;;;;;1999.90;641.47;;;3.90;99.90;;;;;;6222594;23;20983;-78
2022/01/16 08:31:30;;;;;;;1999.90;741.53;;;3.80;99.90;;;;;;6222439;23;20431;-78
2022/01/16 08:33:58;;;;;;;1999.90;795.87;;;3.90;99.90;;;;;;6223454;23;20796;-79
2022/01/16 08:36:26;;;;;;;1999.90;690.47;;;3.90;99.90;;;;;;6248366;23;20512;-78
2022/01/16 08:38:55;;;;;;;1999.90;797.50;;;3.90;99.90;;;;;;6261579;23;20487;-78
2022/01/16 08:41:23;;;;;;;1997.60;574.57;;;3.80;99.90;;;;;;6248861;23;20587;-79
2022/01/16 08:43:51;;;;;;;1999.90;613.73;;;3.90;99.90;;;;;;6224350;23;20472;-79
2022/01/16 08:46:21;;;;;;;1999.90;594.53;;;3.90;99.90;;;;;;6223726;23;20474;-79
2022/01/16 08:48:50;;;;;;;1999.90;624.27;;;3.90;99.90;;;;;;6249014;23;20417;-78
2022/01/16 08:51:18;;;;;;;1999.90;684.53;;;3.90;99.90;;;;;;6223721;23;20457;-79
2022/01/16 08:53:47;;;;;;;1999.90;619.07;;;3.90;99.90;;;;;;6224266;23;20418;-78
2022/01/16 08:56:15;;;;;;;1999.90;654.90;;;3.90;99.90;;;;;;6249285;23;20430;-78
2022/01/16 08:58:45;;;;;;;1999.90;688.87;;;3.90;99.90;;;;;;6224319;23;20421;-78
2022/01/16 09:01:13;;;;;;;1927.07;551.03;;;3.90;99.90;;;;;;6249621;23;20449;-79
2022/01/16 09:03:43;;;;;;;1999.90;659.40;;;3.90;99.90;;;;;;6261782;23;20720;-78
2022/01/16 09:06:11;;;;;;;1999.90;563.37;;;3.90;99.90;;;;;;6251084;22;20433;-79
2022/01/16 09:08:39;;;;;;;1915.17;507.80;;;3.90;99.90;;;;;;6224412;23;20440;-78
2022/01/16 09:11:08;;;;;;;1752.07;478.10;;;4.00;99.90;;;;;;6250863;23;20400;-78
2022/01/16 09:13:37;;;;;;;1918.97;538.00;;;3.90;99.90;;;;;;6224227;23;20793;-79
2022/01/16 09:16:06;;;;;;;1863.40;466.80;;;4.00;99.90;;;;;;6260669;22;20431;-78
2022/01/16 09:18:34;;;;;;;1825.10;497.50;;;4.00;99.90;;;;;;6223680;23;20417;-79
2022/01/16 09:21:03;;;;;;;1999.90;587.07;;;3.90;99.90;;;;;;6251548;23;20444;-80
2022/01/16 09:23:32;;;;;;;1969.83;531.67;;;3.90;99.90;;;;;;6224980;23;20469;-79
2022/01/16 09:26:00;;;;;;;1421.33;349.10;;;3.90;99.90;;;;;;6226350;23;20441;-79
2022/01/16 09:28:28;;;;;;;1377.37;402.70;;;4.00;99.90;;;;;;6226838;23;20481;-78
2022/01/16 09:30:56;;;;;;;1635.03;405.00;;;4.00;99.90;;;;;;6252576;23;20428;-78
2022/01/16 09:33:25;;;;;;;1194.83;311.17;;;4.00;99.90;;;;;;6263080;23;20406;-78
2022/01/16 09:35:53;;;;;;;1096.13;317.50;;;4.00;99.90;;;;;;6251803;22;20970;-78
2022/01/16 09:38:22;;;;;;;748.73;292.70;;;4.00;99.90;;;;;;6227730;23;20416;-79
2022/01/16 09:40:51;;;;;;;810.73;242.70;;;4.00;99.90;;;;;;6228390;23;20424;-79
2022/01/16 09:43:20;;;;;;;1466.33;395.57;;;4.00;99.90;;;;;;6252525;23;20406;-78
2022/01/16 09:45:48;;;;;;;1783.33;424.20;;;4.00;99.90;;;;;;6227268;23;20516;-80
2022/01/16 09:48:16;;;;;;;547.30;194.77;;;4.00;99.90;;;;;;6228599;23;20417;-79
2022/01/16 09:50:45;;;;;;;1156.73;346.83;;;4.10;99.90;;;;;;6225821;23;20475;-79
2022/01/16 09:53:13;;;;;;;1226.23;380.83;;;4.10;99.90;;;;;;6226658;23;20449;-78
2022/01/16 09:55:43;;;;;;;897.07;293.87;;;4.10;99.90;;;;;;6267382;22;20432;-79
2022/01/16 09:58:11;;;;;;;1311.97;301.77;;;4.10;99.90;;;;;;6230992;23;20912;-79
2022/01/16 10:00:39;;;;;;;380.60;134.53;;;4.10;99.90;;;;;;6230080;23;20477;-79
2022/01/16 10:03:09;;;;;;;646.83;230.63;;;4.10;99.90;;;;;;6229886;23;20425;-79
2022/01/16 10:05:40;;;;;;;324.27;156.87;;;4.10;99.90;;;;;;6229134;23;21033;-79
2022/01/16 10:08:11;;;;;;;715.43;246.10;;;4.10;99.90;;;;;;6231067;23;20500;-79
2022/01/16 10:10:43;;;;;;;439.43;172.67;;;4.10;99.90;;;;;;6231329;23;20419;-79
2022/01/16 10:13:22;;;;;;;1607.67;407.93;;;4.20;99.90;;;;;;6257193;23;20416;-79
2022/01/16 10:15:55;;;;;;;937.97;285.10;;;4.20;99.90;;;;;;6231624;23;20440;-79
2022/01/16 10:18:35;;;;;;;602.77;213.80;;;4.20;99.90;;;;;;6257767;23;20481;-80
2022/01/16 10:21:04;;;;;;;513.90;176.87;;;4.20;99.90;;;;;;6230401;23;20434;-79
2022/01/16 10:23:40;;;;;;;245.13;121.13;;;4.20;99.90;;;;;;6231214;23;20506;-79
2022/01/16 10:26:19;;;;;;;378.43;126.03;;;4.30;99.90;;;;;;6231219;23;20479;-79
2022/01/16 10:28:48;;;;;;;393.73;157.60;;;4.30;99.90;;;;;;6230947;23;20431;-79
2022/01/16 10:31:19;;;;;;;451.63;167.40;;;4.30;99.90;;;;;;6232221;23;20420;-79
2022/01/16 10:33:47;;;;;;;494.60;201.77;;;4.30;99.90;;;;;;6269594;23;20673;-79
2022/01/16 10:36:32;;;;;;;214.13;118.57;;;4.30;99.90;;;;;;6231199;23;20465;-79
2022/01/16 10:39:06;;;;;;;572.37;200.10;;;4.40;99.90;;;;;;6255777;23;20503;-79
2022/01/16 10:41:36;;;;;;;399.03;178.97;;;4.40;99.90;;;;;;6230986;23;20416;-79
2022/01/16 10:44:04;;;;;;;645.17;233.90;;;4.40;99.90;;;;;;6230623;23;20481;-79
2022/01/16 10:46:32;;;;;;;340.63;120.97;;;4.40;99.90;;;;;;6255228;23;20761;-79
2022/01/16 10:49:15;;;;;;;578.77;206.43;;;4.40;99.90;;;;;;6228103;23;20427;-78
2022/01/16 10:52:02;;;;;;;434.70;172.63;;;4.50;99.90;;;;;;6261754;23;20378;-78
2022/01/16 10:54:32;;;;;;;617.93;239.70;;;4.50;99.90;;;;;;6255319;22;20417;-79
2022/01/16 10:57:19;;;;;;;501.27;168.67;;;4.50;99.90;;;;;;6230619;23;20927;-80
2022/01/16 10:59:47;;;;;;;640.43;235.93;;;4.50;99.90;;;;;;6254518;23;20412;-79
2022/01/16 11:02:16;;;;;;;274.20;154.40;;;4.50;99.90;;;;;;6227237;23;20421;-79
2022/01/16 11:04:45;;;;;;;380.13;151.67;;;4.50;99.90;;;;;;6226476;23;20492;-81
2022/01/16 11:07:13;;;;;;;267.73;106.70;;;4.60;99.90;;;;;;6231978;23;20432;-79
2022/01/16 11:09:41;;;;;;;186.87;85.80;;;4.60;99.90;;;;;;6260067;23;20438;-79
2022/01/16 11:12:11;;;;;;;323.90;107.30;;;4.60;99.90;;;;;;6233356;23;20485;-79
2022/01/16 11:14:39;;;;;;;279.43;94.20;;;4.70;99.90;;;;;;6232316;22;20430;-79
2022/01/16 11:17:07;;;;;;;304.00;91.10;;;4.70;99.90;;;;;;6231807;23;20413;-80
2022/01/16 11:19:38;;;;;;;277.13;80.37;;;4.70;99.90;;;;;;6254975;23;20417;-79
2022/01/16 11:22:10;;;;;;;362.07;101.23;;;4.70;99.90;;;;;;6224606;23;20444;-79
2022/01/16 11:24:59;;;;;;;383.07;106.37;;;4.80;99.90;;;;;;6224226;22;20465;-79
2022/01/16 11:27:35;;;;;;;309.30;116.00;;;4.80;99.90;;;;;;6251054;23;20440;-78
2022/01/16 11:30:04;;;;;;;276.97;89.50;;;4.90;99.90;;;;;;6225041;23;20421;-78
2022/01/16 11:32:34;;;;;;;210.30;80.50;;;4.90;99.90;;;;;;6262225;23;20896;-78
2022/01/16 11:35:02;;;;;;;275.50;79.93;;;5.00;99.90;;;;;;6224785;23;20438;-79
2022/01/16 11:37:31;;;;;;;239.00;73.33;;;5.00;99.90;;;;;;6251428;22;20461;-79
2022/01/16 11:40:21;;;;;;;216.50;85.13;;;5.10;99.90;;;;;;6250453;23;20416;-79
2022/01/16 11:43:23;;;;;;;223.57;68.63;;;5.20;99.90;;;;;;6252837;22;20416;-79
2022/01/16 11:45:55;;;;;;;314.63;89.33;;;5.30;99.90;;;;;;6231988;22;20472;-79
2022/01/16 11:48:49;;;;;;;238.97;73.63;;;5.30;99.90;;;;;;6220611;23;20514;-79
2022/01/16 11:52:07;;;;;;;276.97;76.87;;;5.30;99.90;;;;;;6220183;23;20869;-79
2022/01/16 11:54:37;;;;;;;261.83;81.37;;;5.30;99.90;;;;;;6105715;23;20992;-79
2022/01/16 11:57:21;;;;;;;170.53;74.43;;;5.40;99.90;;;;;;6204133;23;20510;-78
2022/01/16 11:59:54;;;;;;;236.53;73.17;;;5.40;99.90;;;;;;6225235;23;20418;-79
2022/01/16 12:02:27;;;;;;;216.97;75.03;;;5.40;99.90;;;;;;6224923;23;20422;-79
2022/01/16 12:05:00;;;;;;;340.70;78.67;;;5.50;99.90;;;;;;6224667;23;20430;-79
2022/01/16 12:08:03;;;;;;;246.07;74.03;;;5.50;99.90;;;;;;6224358;23;20513;-79
2022/01/16 12:10:42;;;;;;;314.73;79.63;;;5.60;99.90;;;;;;6227142;23;20403;-80
2022/01/16 12:13:57;;;;;;;133.33;60.10;;;5.60;99.90;;;;;;6225270;23;20442;-80
2022/01/16 12:16:42;;;;;;;285.27;75.73;;;5.60;99.90;;;;;;6225266;23;20492;-80
2022/01/16 12:19:33;;;;;;;274.17;77.33;;;5.60;99.90;;;;;;6225743;23;20839;-80
2022/01/16 12:22:02;;;;;;;207.13;67.70;;;5.70;99.90;;;;;;6227198;23;20433;-80
2022/01/16 12:24:39;;;;;;;208.63;78.73;;;5.70;99.90;;;;;;6227212;23;20410;-80
2022/01/16 12:27:29;;;;;;;287.43;74.23;;;5.70;99.90;;;;;;6225982;23;20422;-82
2022/01/16 12:30:32;;;;;;;343.13;80.93;;;5.80;99.90;;;;;;6226424;23;20429;-80
2022/01/16 12:33:09;;;;;;;248.43;78.37;;;5.80;99.90;;;;;;6165172;23;20417;-79
2022/01/16 12:36:15;;;;;;;231.93;78.00;;;5.80;99.90;;;;;;6228509;23;20433;-80
2022/01/16 12:38:53;;;;;;;238.33;75.27;;;5.80;99.90;;;;;;6227598;23;20419;-80
2022/01/16 12:41:28;;;;;;;259.20;86.37;;;5.90;99.90;;;;;;6226591;23;20453;-80
2022/01/16 12:44:00;;;;;;;252.70;73.40;;;5.90;99.90;;;;;;6224867;23;20416;-78
2022/01/16 12:46:32;;;;;;;203.83;63.57;;;5.90;99.90;;;;;;6233084;23;20429;-80
2022/01/16 12:49:04;;;;;;;264.97;79.00;;;5.90;99.90;;;;;;6223799;23;20526;-78
2022/01/16 12:51:35;;;;;;;202.83;64.17;;;6.00;99.90;;;;;;6223814;23;20505;-79
2022/01/16 12:54:06;;;;;;;224.93;65.80;;;6.00;99.90;;;;;;6223801;23;20422;-79
2022/01/16 12:56:37;;;;;;;289.47;73.73;;;6.00;99.90;;;;;;6225726;23;20426;-79
2022/01/16 12:59:12;;;;;;;242.60;78.63;;;6.00;99.90;;;;;;6224870;23;20460;-79
2022/01/16 13:01:46;;;;;;;285.60;66.43;;;6.00;99.90;;;;;;6224790;23;20477;-79
2022/01/16 13:04:26;;;;;;;249.77;79.03;;;6.10;99.90;;;;;;6222792;23;20473;-81